createdAt,value
2022-07-27T00:00:41.700Z,17.77
2022-07-27T00:03:07.929Z,17.74
2022-07-27T00:05:34.161Z,17.72
2022-07-27T00:08:00.341Z,17.69
2022-07-27T00:10:26.549Z,17.67
2022-07-27T00:12:52.724Z,17.63
2022-07-27T00:15:18.933Z,17.60
2022-07-27T00:17:45.129Z,17.55
2022-07-27T00:20:11.374Z,17.50
2022-07-27T00:22:37.545Z,17.45
2022-07-27T00:25:03.737Z,17.41
2022-07-27T00:27:29.970Z,17.35
2022-07-27T00:29:56.168Z,17.29
2022-07-27T00:32:22.391Z,17.22
2022-07-27T00:34:48.579Z,17.17
2022-07-27T00:37:14.751Z,17.11
2022-07-27T00:39:40.969Z,17.08
2022-07-27T00:42:07.192Z,17.03
2022-07-27T00:44:33.428Z,16.99
2022-07-27T00:46:59.713Z,16.94
2022-07-27T00:49:25.968Z,16.87
2022-07-27T00:51:52.249Z,16.84
2022-07-27T00:54:18.485Z,16.79
2022-07-27T00:56:44.690Z,16.76
2022-07-27T00:59:11.528Z,16.71
2022-07-27T01:01:39.138Z,16.69
2022-07-27T01:04:05.403Z,16.64
2022-07-27T01:06:31.653Z,16.58
2022-07-27T01:08:57.899Z,16.53
2022-07-27T01:11:24.108Z,16.49
2022-07-27T01:13:50.295Z,16.45
2022-07-27T01:16:16.573Z,16.41
2022-07-27T01:18:42.784Z,16.38
2022-07-27T01:21:08.987Z,16.33
2022-07-27T01:23:35.198Z,16.29
2022-07-27T01:26:01.424Z,16.26
2022-07-27T01:28:27.614Z,16.23
2022-07-27T01:30:53.975Z,16.15
2022-07-27T01:33:20.204Z,16.10
2022-07-27T01:35:46.397Z,16.06
2022-07-27T01:38:12.619Z,15.99
2022-07-27T01:40:38.805Z,15.96
2022-07-27T01:43:05.034Z,15.93
2022-07-27T01:45:31.222Z,15.89
2022-07-27T01:47:57.394Z,15.85
2022-07-27T01:50:23.586Z,15.83
2022-07-27T01:52:49.793Z,15.79
2022-07-27T01:55:16.037Z,15.75
2022-07-27T01:57:42.283Z,15.71
2022-07-27T02:00:08.524Z,15.65
2022-07-27T02:02:34.740Z,15.61
2022-07-27T02:05:00.966Z,15.55
2022-07-27T02:07:27.217Z,15.50
2022-07-27T02:09:53.434Z,15.47
2022-07-27T02:12:19.646Z,15.43
2022-07-27T02:14:45.861Z,15.37
2022-07-27T02:17:12.102Z,15.31
2022-07-27T02:19:38.416Z,15.28
2022-07-27T02:22:04.607Z,15.23
2022-07-27T02:24:30.847Z,15.21
2022-07-27T02:26:57.032Z,15.19
2022-07-27T02:29:23.223Z,15.17
2022-07-27T02:31:49.456Z,15.14
2022-07-27T02:34:15.654Z,15.12
2022-07-27T02:36:41.858Z,15.10
2022-07-27T02:39:08.402Z,15.09
2022-07-27T02:41:34.739Z,15.06
2022-07-27T02:44:00.937Z,15.04
2022-07-27T02:46:27.209Z,15.01
2022-07-27T02:48:53.518Z,14.98
2022-07-27T02:51:19.808Z,14.94
2022-07-27T02:53:46.018Z,14.91
2022-07-27T02:56:12.302Z,14.87
2022-07-27T02:58:38.546Z,14.84
2022-07-27T03:01:04.802Z,14.81
2022-07-27T03:03:36.341Z,14.77
2022-07-27T03:06:03.407Z,14.75
2022-07-27T03:08:29.600Z,14.72
2022-07-27T03:10:55.828Z,14.68
2022-07-27T03:13:22.043Z,14.65
2022-07-27T03:15:48.283Z,14.62
2022-07-27T03:18:14.535Z,14.60
2022-07-27T03:20:40.732Z,14.57
2022-07-27T03:23:07.248Z,14.55
2022-07-27T03:25:33.445Z,14.52
2022-07-27T03:28:04.038Z,14.50
2022-07-27T03:30:30.661Z,14.48
2022-07-27T03:32:56.914Z,14.47
2022-07-27T03:35:23.180Z,14.45
2022-07-27T03:37:49.512Z,14.43
2022-07-27T03:40:15.696Z,14.43
2022-07-27T03:42:41.870Z,14.41
2022-07-27T03:45:08.093Z,14.39
2022-07-27T03:47:34.323Z,14.38
2022-07-27T03:50:00.513Z,14.37
2022-07-27T03:52:26.756Z,14.36
2022-07-27T03:54:52.954Z,14.38
2022-07-27T03:57:19.152Z,14.38
2022-07-27T03:59:45.337Z,14.39
2022-07-27T04:02:11.642Z,14.41
2022-07-27T04:04:37.910Z,14.43
2022-07-27T04:07:04.113Z,14.47
2022-07-27T04:09:30.338Z,14.53
2022-07-27T04:11:57.629Z,14.59
2022-07-27T04:14:25.786Z,14.66
2022-07-27T04:16:52.047Z,14.74
2022-07-27T04:19:18.324Z,14.84
2022-07-27T04:21:44.530Z,14.96
2022-07-27T04:24:10.733Z,15.07
2022-07-27T04:26:36.988Z,15.17
2022-07-27T04:29:03.182Z,15.26
2022-07-27T04:31:29.426Z,15.52
2022-07-27T04:33:55.644Z,16.51
2022-07-27T04:36:22.016Z,17.75
2022-07-27T04:38:48.227Z,18.74
2022-07-27T04:41:14.453Z,19.53
2022-07-27T04:43:40.634Z,20.05
2022-07-27T04:46:10.512Z,20.35
2022-07-27T04:48:41.446Z,20.52
2022-07-27T04:51:15.643Z,20.61
2022-07-27T04:53:53.373Z,20.49
2022-07-27T04:56:24.734Z,20.33
2022-07-27T04:58:50.929Z,20.24
2022-07-27T05:01:17.235Z,20.17
2022-07-27T05:03:43.576Z,20.07
2022-07-27T05:06:09.791Z,19.96
2022-07-27T05:08:36.023Z,19.76
2022-07-27T05:11:02.215Z,19.64
2022-07-27T05:13:28.432Z,19.46
2022-07-27T05:15:56.050Z,19.24
2022-07-27T05:18:22.379Z,19.03
2022-07-27T05:20:48.620Z,18.85
2022-07-27T05:23:16.599Z,18.80
2022-07-27T05:25:43.003Z,18.84
2022-07-27T05:28:09.193Z,18.87
2022-07-27T05:30:35.439Z,18.92
2022-07-27T05:33:01.650Z,19.01
2022-07-27T05:35:27.847Z,19.10
2022-07-27T05:37:54.504Z,19.19
2022-07-27T05:40:20.983Z,19.18
2022-07-27T05:42:47.660Z,19.16
2022-07-27T05:45:15.061Z,19.17
2022-07-27T05:47:41.836Z,19.19
2022-07-27T05:50:08.326Z,19.24
2022-07-27T05:52:34.866Z,19.20
2022-07-27T05:55:01.294Z,19.22
2022-07-27T05:57:27.679Z,19.21
2022-07-27T05:59:54.847Z,19.29
2022-07-27T06:02:21.476Z,19.37
2022-07-27T06:04:47.986Z,19.41
2022-07-27T06:07:14.699Z,19.39
2022-07-27T06:09:41.288Z,19.36
2022-07-27T06:12:07.881Z,19.36
2022-07-27T06:14:34.804Z,19.38
2022-07-27T06:17:01.574Z,19.41
2022-07-27T06:19:35.933Z,19.45
2022-07-27T06:22:04.943Z,19.52
2022-07-27T06:24:31.384Z,19.54
2022-07-27T06:26:57.874Z,19.63
2022-07-27T06:29:24.172Z,19.66
2022-07-27T06:31:50.647Z,19.65
2022-07-27T06:34:17.461Z,19.63
2022-07-27T06:36:43.691Z,19.59
2022-07-27T06:39:10.310Z,19.63
2022-07-27T06:41:36.750Z,19.77
2022-07-27T06:44:02.982Z,19.87
2022-07-27T06:46:29.231Z,19.93
2022-07-27T06:48:55.589Z,19.93
2022-07-27T06:51:21.826Z,19.88
2022-07-27T06:53:48.101Z,19.80
2022-07-27T06:56:14.334Z,19.74
2022-07-27T06:58:40.569Z,19.66
2022-07-27T07:01:06.893Z,19.61
2022-07-27T07:03:33.209Z,19.52
2022-07-27T07:05:59.481Z,19.48
2022-07-27T07:08:25.655Z,19.46
2022-07-27T07:10:51.834Z,19.48
2022-07-27T07:13:18.204Z,19.50
2022-07-27T07:15:44.446Z,19.54
2022-07-27T07:18:10.660Z,19.60
2022-07-27T07:20:36.864Z,19.67
2022-07-27T07:23:03.085Z,19.71
2022-07-27T07:25:29.286Z,19.72
2022-07-27T07:27:55.706Z,19.74
2022-07-27T07:30:21.903Z,19.79
2022-07-27T07:32:48.103Z,19.72
2022-07-27T07:35:14.332Z,19.70
2022-07-27T07:37:40.535Z,19.68
2022-07-27T07:42:53.118Z,19.60
2022-07-27T07:45:19.412Z,19.56
2022-07-27T07:47:45.621Z,19.56
2022-07-27T07:50:11.862Z,19.57
2022-07-27T07:52:38.091Z,19.55
2022-07-27T07:55:04.310Z,19.57
2022-07-27T07:57:30.524Z,19.66
2022-07-27T07:59:56.755Z,19.75
2022-07-27T08:02:22.971Z,19.79
2022-07-27T08:04:49.194Z,19.74
2022-07-27T08:07:15.597Z,19.74
2022-07-27T08:09:41.809Z,19.79
2022-07-27T08:12:08.019Z,19.85
2022-07-27T08:14:34.226Z,19.97
2022-07-27T08:17:00.603Z,20.08
2022-07-27T08:19:26.790Z,20.15
2022-07-27T08:21:53.006Z,20.15
2022-07-27T08:24:19.405Z,20.11
2022-07-27T08:26:45.630Z,20.04
2022-07-27T08:29:14.266Z,19.93
2022-07-27T08:31:52.552Z,19.82
2022-07-27T08:34:19.621Z,19.85
2022-07-27T08:36:45.893Z,19.94
2022-07-27T08:39:41.244Z,20.04
2022-07-27T08:41:58.310Z,20.18
2022-07-27T08:44:24.545Z,20.34
2022-07-27T08:46:50.820Z,20.41
2022-07-27T08:49:17.856Z,20.58
2022-07-27T08:51:47.367Z,20.73
2022-07-27T08:54:13.754Z,20.77
2022-07-27T08:56:39.989Z,20.75
2022-07-27T08:59:06.212Z,20.69
2022-07-27T09:01:32.512Z,20.59
2022-07-27T09:03:58.776Z,20.51
2022-07-27T09:06:24.993Z,20.36
2022-07-27T09:08:53.322Z,20.27
2022-07-27T09:11:19.814Z,20.17
2022-07-27T09:13:46.055Z,20.13
2022-07-27T09:16:20.584Z,20.07
2022-07-27T09:18:47.362Z,20.06
2022-07-27T09:21:13.590Z,20.10
2022-07-27T09:23:39.820Z,20.10
2022-07-27T09:26:16.700Z,20.16
2022-07-27T09:28:52.374Z,20.29
2022-07-27T09:31:18.655Z,20.38
2022-07-27T09:33:44.914Z,20.41
2022-07-27T09:36:11.135Z,20.40
2022-07-27T09:38:37.325Z,20.31
2022-07-27T09:41:03.669Z,20.30
2022-07-27T09:46:16.491Z,20.29
2022-07-27T09:48:42.760Z,20.40
2022-07-27T09:51:55.879Z,20.56
2022-07-27T09:53:55.202Z,20.73
2022-07-27T10:01:56.029Z,20.87
2022-07-27T10:04:22.291Z,20.83
2022-07-27T10:07:02.196Z,20.82
2022-07-27T10:09:29.590Z,20.77
2022-07-27T10:11:55.821Z,20.80
2022-07-27T10:14:22.052Z,20.90
2022-07-27T10:16:48.238Z,21.04
2022-07-27T10:19:14.478Z,21.17
2022-07-27T10:21:40.717Z,21.34
2022-07-27T10:24:06.950Z,21.37
2022-07-27T10:26:33.179Z,21.43
2022-07-27T10:28:59.383Z,21.54
2022-07-27T10:31:25.678Z,21.59
2022-07-27T10:33:52.047Z,21.67
2022-07-27T10:36:18.280Z,21.84
2022-07-27T10:38:44.509Z,22.02
2022-07-27T10:41:10.802Z,22.05
2022-07-27T10:43:36.999Z,22.06
2022-07-27T10:51:43.849Z,21.85
2022-07-27T10:54:12.162Z,21.86
2022-07-27T10:56:38.666Z,21.94
2022-07-27T10:59:04.898Z,22.08
2022-07-27T11:01:31.130Z,22.25
2022-07-27T11:03:57.431Z,22.44
2022-07-27T11:06:33.054Z,22.54
2022-07-27T11:11:47.406Z,22.57
2022-07-27T11:14:13.905Z,22.47
2022-07-27T11:16:55.667Z,22.34
2022-07-27T11:19:22.503Z,22.22
2022-07-27T11:21:48.905Z,22.14
2022-07-27T11:24:15.423Z,22.09
2022-07-27T11:26:41.878Z,22.08
2022-07-27T11:29:08.073Z,22.12
2022-07-27T11:31:54.279Z,22.15
2022-07-27T11:34:20.464Z,22.15
2022-07-27T11:36:46.729Z,22.16
2022-07-27T11:39:15.013Z,22.18
2022-07-27T11:42:05.836Z,22.19
2022-07-27T11:44:27.583Z,22.16
2022-07-27T11:46:57.377Z,22.12
2022-07-27T11:49:27.646Z,22.13
2022-07-27T11:51:53.932Z,22.12
2022-07-27T11:54:20.145Z,22.12
2022-07-27T11:56:46.414Z,22.15
2022-07-27T11:59:12.741Z,22.17
2022-07-27T12:01:39.131Z,22.17
2022-07-27T12:04:05.316Z,22.28
2022-07-27T12:06:31.537Z,22.45
2022-07-27T12:08:57.749Z,22.51
2022-07-27T12:11:33.883Z,22.53
2022-07-27T12:14:00.623Z,22.62
2022-07-27T12:16:26.867Z,22.62
2022-07-27T12:18:53.115Z,22.61
2022-07-27T12:21:19.317Z,22.58
2022-07-27T12:23:45.491Z,22.57
2022-07-27T12:26:11.721Z,22.51
2022-07-27T12:28:37.950Z,22.55
2022-07-27T12:31:04.173Z,22.61
2022-07-27T12:33:31.250Z,22.67
2022-07-27T12:35:57.471Z,22.73
2022-07-27T12:38:23.642Z,22.80
2022-07-27T12:40:49.904Z,22.78
2022-07-27T12:43:16.077Z,22.71
2022-07-27T12:45:42.362Z,22.72
2022-07-27T12:48:08.565Z,22.75
2022-07-27T12:50:34.793Z,22.76
2022-07-27T12:53:01.053Z,22.73
2022-07-27T12:55:27.262Z,22.66
2022-07-27T12:57:56.196Z,22.53
2022-07-27T13:00:23.056Z,22.46
2022-07-27T13:02:49.636Z,22.50
2022-07-27T13:05:18.518Z,22.63
2022-07-27T13:07:44.743Z,22.74
2022-07-27T13:10:11.354Z,22.80
2022-07-27T13:12:37.590Z,22.91
2022-07-27T13:15:03.819Z,23.04
2022-07-27T13:17:30.045Z,23.08
2022-07-27T13:19:56.278Z,23.18
2022-07-27T13:22:22.455Z,23.29
2022-07-27T13:24:48.647Z,23.34
2022-07-27T13:27:14.996Z,23.35
2022-07-27T13:29:41.206Z,23.36
2022-07-27T13:32:07.548Z,23.35
2022-07-27T13:34:33.805Z,23.31
2022-07-27T13:37:00.023Z,23.35
2022-07-27T13:39:26.264Z,23.38
2022-07-27T13:41:52.472Z,23.57
2022-07-27T13:44:49.110Z,23.79
2022-07-27T13:47:07.492Z,24.03
2022-07-27T13:49:33.948Z,23.98
2022-07-27T13:52:00.202Z,23.91
2022-07-27T13:54:26.418Z,23.88
2022-07-27T13:56:52.625Z,23.79
2022-07-27T13:59:18.852Z,23.70
2022-07-27T14:01:45.263Z,23.65
2022-07-27T14:04:12.106Z,23.70
2022-07-27T14:06:38.296Z,23.78
2022-07-27T14:09:04.550Z,23.92
2022-07-27T14:11:30.875Z,23.94
2022-07-27T14:13:57.076Z,23.94
2022-07-27T14:16:23.293Z,23.88
2022-07-27T14:18:49.510Z,23.84
2022-07-27T14:21:15.711Z,23.84
2022-07-27T14:23:42.061Z,23.80
2022-07-27T14:26:08.259Z,23.81
2022-07-27T14:28:34.494Z,23.84
2022-07-27T14:31:00.680Z,23.93
2022-07-27T14:33:27.847Z,23.99
2022-07-27T14:36:03.328Z,23.98
2022-07-27T14:38:30.834Z,24.01
2022-07-27T14:40:57.307Z,23.88
2022-07-27T14:43:23.566Z,23.67
2022-07-27T14:45:49.779Z,23.68
2022-07-27T14:48:21.442Z,23.82
2022-07-27T14:50:49.194Z,23.85
2022-07-27T14:53:15.456Z,23.83
2022-07-27T14:55:41.695Z,23.81
2022-07-27T14:58:07.953Z,23.85
2022-07-27T15:00:37.925Z,23.86
2022-07-27T15:03:04.466Z,23.85
2022-07-27T15:05:30.683Z,23.88
2022-07-27T15:07:56.908Z,23.85
2022-07-27T15:10:23.218Z,23.83
2022-07-27T15:12:49.440Z,23.89
2022-07-27T15:15:15.661Z,23.85
2022-07-27T15:17:41.875Z,23.82
2022-07-27T15:20:08.073Z,23.94
2022-07-27T15:22:34.270Z,23.99
2022-07-27T15:25:00.476Z,23.91
2022-07-27T15:27:26.691Z,23.83
2022-07-27T15:29:52.937Z,23.79
2022-07-27T15:32:19.187Z,23.79
2022-07-27T15:34:45.602Z,23.89
2022-07-27T15:37:11.974Z,23.97
2022-07-27T15:39:38.173Z,23.94
2022-07-27T15:42:04.399Z,23.90
2022-07-27T15:44:30.606Z,23.80
2022-07-27T15:46:56.974Z,23.68
2022-07-27T15:49:23.282Z,23.60
2022-07-27T15:51:49.579Z,23.62
2022-07-27T15:54:15.835Z,23.66
2022-07-27T15:56:42.027Z,23.67
2022-07-27T15:59:08.250Z,23.66
2022-07-27T16:01:35.727Z,23.59
2022-07-27T16:04:02.310Z,23.57
2022-07-27T16:06:28.608Z,23.56
2022-07-27T16:08:54.816Z,23.52
2022-07-27T16:11:21.005Z,23.43
2022-07-27T16:13:47.217Z,23.33
2022-07-27T16:16:13.477Z,23.21
2022-07-27T16:18:39.689Z,23.11
2022-07-27T16:21:05.925Z,23.10
2022-07-27T16:23:32.116Z,23.14
2022-07-27T16:26:04.656Z,23.17
2022-07-27T16:28:31.808Z,23.23
2022-07-27T16:30:58.035Z,23.36
2022-07-27T16:33:24.347Z,23.56
2022-07-27T16:35:50.535Z,23.69
2022-07-27T16:38:16.779Z,23.74
2022-07-27T16:40:42.997Z,23.72
2022-07-27T16:43:09.233Z,23.69
2022-07-27T16:45:35.422Z,23.74
2022-07-27T16:48:01.626Z,23.71
2022-07-27T16:50:27.855Z,23.66
2022-07-27T16:52:54.087Z,23.57
2022-07-27T16:55:20.310Z,23.46
2022-07-27T16:57:48.920Z,23.34
2022-07-27T17:00:15.117Z,23.24
2022-07-27T17:02:41.344Z,23.15
2022-07-27T17:05:07.551Z,23.09
2022-07-27T17:07:33.751Z,23.12
2022-07-27T17:09:59.948Z,23.19
2022-07-27T17:12:26.152Z,23.23
2022-07-27T17:14:52.476Z,23.24
2022-07-27T17:17:18.725Z,23.27
2022-07-27T17:19:45.172Z,23.24
2022-07-27T17:22:11.403Z,23.26
2022-07-27T17:24:38.329Z,23.26
2022-07-27T17:27:04.641Z,23.29
2022-07-27T17:29:30.890Z,23.30
2022-07-27T17:31:57.106Z,23.22
2022-07-27T17:34:23.334Z,23.12
2022-07-27T17:36:49.563Z,23.04
2022-07-27T17:39:16.207Z,22.97
2022-07-27T17:41:42.607Z,22.91
2022-07-27T17:44:08.809Z,22.87
2022-07-27T17:46:38.778Z,22.81
2022-07-27T17:49:05.349Z,22.81
2022-07-27T17:51:31.575Z,22.83
2022-07-27T17:53:57.785Z,22.84
2022-07-27T17:56:23.991Z,22.85
2022-07-27T17:58:50.233Z,22.83
2022-07-27T18:01:16.625Z,22.75
2022-07-27T18:03:42.963Z,22.62
2022-07-27T18:06:09.220Z,22.55
2022-07-27T18:08:35.442Z,22.43
2022-07-27T18:11:01.668Z,22.33
2022-07-27T18:13:39.063Z,22.24
2022-07-27T18:16:06.195Z,22.18
2022-07-27T18:18:32.692Z,22.07
2022-07-27T18:20:58.879Z,22.00
2022-07-27T18:23:25.089Z,21.95
2022-07-27T18:25:51.317Z,21.88
2022-07-27T18:28:17.524Z,21.79
2022-07-27T18:30:43.752Z,21.68
2022-07-27T18:33:10.068Z,21.59
2022-07-27T18:35:36.299Z,21.48
2022-07-27T18:38:02.472Z,21.39
2022-07-27T18:40:28.749Z,21.32
2022-07-27T18:42:54.977Z,21.27
2022-07-27T18:45:21.196Z,21.22
2022-07-27T18:47:50.656Z,21.14
2022-07-27T18:50:16.871Z,21.05
2022-07-27T18:52:43.050Z,20.99
2022-07-27T18:55:09.286Z,20.92
2022-07-27T18:57:35.502Z,20.84
2022-07-27T19:00:01.682Z,20.77
2022-07-27T19:02:28.013Z,20.69
2022-07-27T19:04:54.235Z,20.62
2022-07-27T19:07:21.434Z,20.53
2022-07-27T19:09:47.874Z,20.46
2022-07-27T19:12:14.084Z,20.38
2022-07-27T19:14:40.338Z,20.31
2022-07-27T19:17:06.646Z,20.24
2022-07-27T19:19:37.091Z,20.17
2022-07-27T19:22:03.271Z,20.11
2022-07-27T19:24:29.525Z,20.05
2022-07-27T19:26:55.750Z,19.96
2022-07-27T19:29:22.027Z,19.88
2022-07-27T19:31:48.259Z,19.80
2022-07-27T19:34:14.446Z,19.74
2022-07-27T19:36:40.658Z,19.68
2022-07-27T19:39:09.179Z,19.61
2022-07-27T19:41:35.476Z,19.53
2022-07-27T19:44:01.706Z,19.46
2022-07-27T19:46:28.003Z,19.39
2022-07-27T19:48:54.340Z,19.32
2022-07-27T19:51:20.563Z,19.23
2022-07-27T19:53:46.787Z,19.14
2022-07-27T19:56:12.977Z,19.04
2022-07-27T19:58:39.199Z,18.97
2022-07-27T20:01:09.484Z,18.89
2022-07-27T20:03:53.733Z,18.82
2022-07-27T20:06:21.323Z,18.77
2022-07-27T20:08:47.522Z,18.72
2022-07-27T20:11:13.726Z,18.69
2022-07-27T20:13:39.919Z,18.64
2022-07-27T20:16:06.161Z,18.62
2022-07-27T20:18:32.334Z,18.55
2022-07-27T20:20:58.517Z,18.51
2022-07-27T20:23:24.758Z,18.47
2022-07-27T20:25:50.948Z,18.42
2022-07-27T20:28:17.182Z,18.38
2022-07-27T20:30:43.469Z,18.34
2022-07-27T20:33:09.744Z,18.29
2022-07-27T20:35:37.839Z,18.24
2022-07-27T20:38:04.299Z,18.20
2022-07-27T20:40:30.463Z,18.15
2022-07-27T20:42:56.675Z,18.11
2022-07-27T20:45:22.968Z,18.05
2022-07-27T20:47:49.178Z,18.00
2022-07-27T20:50:15.431Z,17.94
2022-07-27T20:52:41.622Z,17.89
2022-07-27T20:55:07.857Z,17.84
2022-07-27T20:57:34.052Z,17.78
2022-07-27T21:00:00.263Z,17.73
2022-07-27T21:02:26.545Z,17.68
2022-07-27T21:04:52.768Z,17.61
2022-07-27T21:07:18.942Z,17.56
2022-07-27T21:09:45.175Z,17.50
2022-07-27T21:12:11.477Z,17.43
2022-07-27T21:14:37.667Z,17.38
2022-07-27T21:17:03.920Z,17.32
2022-07-27T21:19:30.156Z,17.26
2022-07-27T21:21:56.566Z,17.19
2022-07-27T21:24:22.811Z,17.14
2022-07-27T21:26:49.071Z,17.08
2022-07-27T21:29:15.290Z,17.02
2022-07-27T21:31:41.535Z,16.96
2022-07-27T21:34:07.732Z,16.90
2022-07-27T21:36:33.942Z,16.84
2022-07-27T21:39:00.121Z,16.79
2022-07-27T21:41:26.324Z,16.74
2022-07-27T21:43:52.653Z,16.68
2022-07-27T21:46:18.882Z,16.61
2022-07-27T21:48:45.238Z,16.54
2022-07-27T21:51:11.543Z,16.48
2022-07-27T21:53:37.744Z,16.41
2022-07-27T21:56:03.975Z,16.36
2022-07-27T21:58:30.200Z,16.29
2022-07-27T22:00:56.461Z,16.24
2022-07-27T22:03:22.688Z,16.18
2022-07-27T22:05:48.910Z,16.12
2022-07-27T22:08:15.117Z,16.08
2022-07-27T22:10:41.288Z,16.04
2022-07-27T22:13:07.490Z,15.99
2022-07-27T22:15:33.690Z,15.91
2022-07-27T22:17:59.898Z,15.86
2022-07-27T22:20:26.094Z,15.80
2022-07-27T22:22:52.333Z,15.75
2022-07-27T22:25:18.512Z,15.71
2022-07-27T22:27:44.699Z,15.64
2022-07-27T22:30:10.884Z,15.59
2022-07-27T22:32:37.123Z,15.56
2022-07-27T22:35:03.353Z,15.51
2022-07-27T22:37:29.583Z,15.47
2022-07-27T22:39:55.777Z,15.43
2022-07-27T22:42:21.995Z,15.38
2022-07-27T22:44:48.175Z,15.33
2022-07-27T22:47:14.385Z,15.28
2022-07-27T22:49:40.605Z,15.25
2022-07-27T22:52:06.831Z,15.20
2022-07-27T22:54:33.053Z,15.17
2022-07-27T22:56:59.302Z,15.13
2022-07-27T22:59:25.514Z,15.08
2022-07-27T23:01:51.754Z,15.03
2022-07-27T23:04:18.629Z,14.99
2022-07-27T23:06:45.042Z,14.94
2022-07-27T23:09:11.251Z,14.90
2022-07-27T23:11:37.446Z,14.87
2022-07-27T23:14:03.669Z,14.82
2022-07-27T23:16:29.906Z,14.77
2022-07-27T23:18:56.224Z,14.74
2022-07-27T23:21:22.383Z,14.70
2022-07-27T23:23:53.419Z,14.65
2022-07-27T23:26:20.003Z,14.61
2022-07-27T23:28:46.243Z,14.57
2022-07-27T23:31:12.740Z,14.54
2022-07-27T23:33:38.998Z,14.51
2022-07-27T23:36:05.242Z,14.47
2022-07-27T23:38:31.491Z,14.44
2022-07-27T23:40:57.693Z,14.40
2022-07-27T23:43:23.908Z,14.36
2022-07-27T23:45:50.122Z,14.32
2022-07-27T23:48:16.317Z,14.30
2022-07-27T23:50:42.712Z,14.28
2022-07-27T23:53:09.037Z,14.25
2022-07-27T23:55:35.460Z,14.23
2022-07-27T23:58:01.641Z,14.19
